createdAt,value
2019-03-27T00:01:53.499Z,19.23
2019-03-27T00:04:59.158Z,18.20
2019-03-27T00:08:04.807Z,18.43
2019-03-27T00:11:10.547Z,18.70
2019-03-27T00:14:16.044Z,18.93
2019-03-27T00:17:21.773Z,20.83
2019-03-27T00:20:27.447Z,20.67
2019-03-27T00:23:33.098Z,20.77
2019-03-27T00:26:38.679Z,18.97
2019-03-27T00:29:44.187Z,20.07
2019-03-27T00:32:49.778Z,19.80
2019-03-27T00:35:55.343Z,20.30
2019-03-27T00:39:00.936Z,18.57
2019-03-27T00:42:06.507Z,19.60
2019-03-27T00:45:25.398Z,19.30
2019-03-27T00:48:19.743Z,19.07
2019-03-27T00:51:25.393Z,18.27
2019-03-27T00:54:31.047Z,19.53
2019-03-27T00:57:36.715Z,19.43
2019-03-27T01:01:14.192Z,19.43
2019-03-27T01:04:19.780Z,20.00
2019-03-27T01:07:25.647Z,18.97
2019-03-27T01:10:31.269Z,18.93
2019-03-27T01:13:36.959Z,20.00
2019-03-27T01:16:42.540Z,19.53
2019-03-27T01:19:48.127Z,19.07
2019-03-27T01:22:53.698Z,18.90
2019-03-27T01:25:59.307Z,20.53
2019-03-27T01:29:04.884Z,18.60
2019-03-27T01:32:10.804Z,18.43
2019-03-27T01:35:16.478Z,18.37
2019-03-27T01:38:22.053Z,21.40
2019-03-27T01:41:27.718Z,20.20
2019-03-27T01:44:33.293Z,22.20
2019-03-27T01:47:38.863Z,19.87
2019-03-27T01:50:44.468Z,19.00
2019-03-27T01:53:50.070Z,20.27
2019-03-27T01:56:55.723Z,20.30
2019-03-27T02:00:01.319Z,20.93
2019-03-27T02:03:06.889Z,19.83
2019-03-27T02:06:12.538Z,19.40
2019-03-27T02:09:18.209Z,21.33
2019-03-27T02:12:23.704Z,20.60
2019-03-27T02:15:29.381Z,19.90
2019-03-27T02:18:34.939Z,20.33
2019-03-27T02:21:40.618Z,20.40
2019-03-27T02:24:46.204Z,18.47
2019-03-27T02:27:51.790Z,18.70
2019-03-27T02:30:57.449Z,20.93
2019-03-27T02:34:03.022Z,19.70
2019-03-27T02:37:08.682Z,20.47
2019-03-27T02:40:14.408Z,19.70
2019-03-27T02:43:19.977Z,19.90
2019-03-27T02:46:25.804Z,22.40
2019-03-27T02:49:31.602Z,21.13
2019-03-27T02:52:37.192Z,20.60
2019-03-27T02:55:42.796Z,21.77
2019-03-27T02:58:48.429Z,20.43
2019-03-27T03:02:49.337Z,20.07
2019-03-27T03:05:54.882Z,20.13
2019-03-27T03:09:00.498Z,19.90
2019-03-27T03:12:06.040Z,19.60
2019-03-27T03:15:12.297Z,19.00
2019-03-27T03:18:17.843Z,17.50
2019-03-27T03:21:23.406Z,18.93
2019-03-27T03:24:29.013Z,18.03
2019-03-27T03:27:34.716Z,17.93
2019-03-27T03:30:40.226Z,18.70
2019-03-27T03:33:45.790Z,17.67
2019-03-27T03:36:51.413Z,17.63
2019-03-27T03:39:57.018Z,17.07
2019-03-27T03:43:02.736Z,16.00
2019-03-27T03:46:08.351Z,17.17
2019-03-27T03:49:13.888Z,16.80
2019-03-27T03:52:21.331Z,16.37
2019-03-27T03:55:27.032Z,16.57
2019-03-27T03:58:35.118Z,18.00
2019-03-27T04:01:44.484Z,16.97
2019-03-27T04:04:52.442Z,17.70
2019-03-27T04:07:57.962Z,18.00
2019-03-27T04:11:03.573Z,16.73
2019-03-27T04:14:09.144Z,18.47
2019-03-27T04:17:17.598Z,17.70
2019-03-27T04:20:21.764Z,16.07
2019-03-27T04:23:27.229Z,18.13
2019-03-27T04:26:33.672Z,18.43
2019-03-27T04:29:39.402Z,19.57
2019-03-27T04:32:44.958Z,16.93
2019-03-27T04:35:50.456Z,17.83
2019-03-27T04:38:55.987Z,16.93
2019-03-27T04:42:01.879Z,17.10
2019-03-27T04:45:07.691Z,17.07
2019-03-27T04:48:13.230Z,18.77
2019-03-27T04:51:18.754Z,17.90
2019-03-27T04:54:26.944Z,19.57
2019-03-27T04:57:31.444Z,15.73
2019-03-27T05:00:36.992Z,17.47
2019-03-27T05:03:42.467Z,16.13
2019-03-27T05:06:47.913Z,16.70
2019-03-27T05:09:53.377Z,15.83
2019-03-27T05:12:58.912Z,13.53
2019-03-27T05:16:04.473Z,14.10
2019-03-27T05:19:09.927Z,15.60
2019-03-27T05:22:16.675Z,14.90
2019-03-27T05:25:22.236Z,13.13
2019-03-27T05:28:27.696Z,11.87
2019-03-27T05:31:33.201Z,13.50
2019-03-27T05:34:38.741Z,13.47
2019-03-27T05:37:44.206Z,14.20
2019-03-27T05:40:49.674Z,15.47
2019-03-27T05:43:55.120Z,15.30
2019-03-27T05:47:00.744Z,15.80
2019-03-27T05:50:07.282Z,15.70
2019-03-27T05:53:12.732Z,17.17
2019-03-27T05:56:18.241Z,16.60
2019-03-27T05:59:23.786Z,15.90
2019-03-27T06:02:29.385Z,16.50
2019-03-27T06:05:34.844Z,17.03
2019-03-27T06:08:40.315Z,17.60
2019-03-27T06:11:45.859Z,17.13
2019-03-27T06:14:51.374Z,17.03
2019-03-27T06:17:56.914Z,17.50
2019-03-27T06:21:02.458Z,17.87
2019-03-27T06:24:07.986Z,18.80
2019-03-27T06:27:13.549Z,16.83
2019-03-27T06:30:19.182Z,15.37
2019-03-27T06:33:24.667Z,18.40
2019-03-27T06:36:30.259Z,14.23
2019-03-27T06:39:35.752Z,16.30
2019-03-27T06:42:42.161Z,15.13
2019-03-27T06:45:48.662Z,15.73
2019-03-27T06:48:54.160Z,14.97
2019-03-27T06:51:59.774Z,14.07
2019-03-27T06:55:05.977Z,14.00
2019-03-27T06:58:11.523Z,14.30
2019-03-27T07:01:16.990Z,13.37
2019-03-27T07:04:22.473Z,12.73
2019-03-27T07:07:28.027Z,13.13
2019-03-27T07:10:33.648Z,11.90
2019-03-27T07:13:39.099Z,13.23
2019-03-27T07:16:44.669Z,18.70
2019-03-27T07:19:50.116Z,13.40
2019-03-27T07:22:55.585Z,13.30
2019-03-27T07:26:01.060Z,13.37
2019-03-27T07:29:06.535Z,13.10
2019-03-27T07:32:11.994Z,9.43
2019-03-27T07:35:17.521Z,11.30
2019-03-27T07:38:22.993Z,9.30
2019-03-27T07:41:28.581Z,10.10
2019-03-27T07:44:34.129Z,9.27
2019-03-27T07:47:39.672Z,10.27
2019-03-27T07:50:45.128Z,9.00
2019-03-27T07:53:50.676Z,9.53
2019-03-27T07:56:56.126Z,9.10
2019-03-27T08:00:01.661Z,8.60
2019-03-27T08:03:07.120Z,9.30
2019-03-27T08:06:12.679Z,8.07
2019-03-27T08:09:18.278Z,9.17
2019-03-27T08:12:23.747Z,10.00
2019-03-27T08:15:29.407Z,9.00
2019-03-27T08:18:34.866Z,8.50
2019-03-27T08:21:40.410Z,7.90
2019-03-27T08:24:45.865Z,7.70
2019-03-27T08:27:51.333Z,8.80
2019-03-27T08:30:56.874Z,7.00
2019-03-27T08:34:02.416Z,7.67
2019-03-27T08:37:07.879Z,7.90
2019-03-27T08:40:14.298Z,7.40
2019-03-27T08:43:21.385Z,7.13
2019-03-27T08:46:27.035Z,7.70
2019-03-27T08:49:32.484Z,6.73
2019-03-27T08:52:38.023Z,8.40
2019-03-27T08:55:43.584Z,7.00
2019-03-27T08:58:49.033Z,5.67
2019-03-27T09:01:54.661Z,6.97
2019-03-27T09:05:00.397Z,9.77
2019-03-27T09:08:06.036Z,4.63
2019-03-27T09:11:11.570Z,6.27
2019-03-27T09:14:18.095Z,4.00
2019-03-27T09:17:23.560Z,5.23
2019-03-27T09:20:29.079Z,5.33
2019-03-27T09:23:34.620Z,4.07
2019-03-27T09:26:40.236Z,4.00
2019-03-27T09:29:45.773Z,3.40
2019-03-27T09:32:51.284Z,3.43
2019-03-27T09:35:56.852Z,2.93
2019-03-27T09:39:02.460Z,2.57
2019-03-27T09:42:08.088Z,2.37
2019-03-27T09:45:14.270Z,1.90
2019-03-27T09:48:19.809Z,2.80
2019-03-27T09:51:25.432Z,4.00
2019-03-27T09:54:30.995Z,3.47
2019-03-27T09:57:36.549Z,4.27
2019-03-27T10:01:03.142Z,3.93
2019-03-27T10:04:08.846Z,3.10
2019-03-27T10:07:14.391Z,2.70
2019-03-27T10:10:19.922Z,1.83
2019-03-27T10:13:25.560Z,1.70
2019-03-27T10:16:31.094Z,1.63
2019-03-27T10:19:36.567Z,4.20
2019-03-27T10:22:42.173Z,1.63
2019-03-27T10:25:47.741Z,1.60
2019-03-27T10:28:53.224Z,2.03
2019-03-27T10:31:58.773Z,1.40
2019-03-27T10:35:04.635Z,1.40
2019-03-27T10:38:10.248Z,2.37
2019-03-27T10:41:15.799Z,2.00
2019-03-27T10:44:21.268Z,2.40
2019-03-27T10:47:26.740Z,2.27
2019-03-27T10:50:32.347Z,1.70
2019-03-27T10:53:37.816Z,2.47
2019-03-27T10:56:43.278Z,2.07
2019-03-27T10:59:48.738Z,1.80
2019-03-27T11:02:54.204Z,2.20
2019-03-27T11:05:59.684Z,2.20
2019-03-27T11:09:08.963Z,2.23
2019-03-27T11:12:14.442Z,3.60
2019-03-27T11:15:20.229Z,2.17
2019-03-27T11:18:25.839Z,2.27
2019-03-27T11:21:31.310Z,2.60
2019-03-27T11:24:36.785Z,2.07
2019-03-27T11:27:42.334Z,2.60
2019-03-27T11:30:48.530Z,3.10
2019-03-27T11:33:54.273Z,4.73
2019-03-27T11:36:59.759Z,2.10
2019-03-27T11:40:06.029Z,2.70
2019-03-27T11:43:11.559Z,1.83
2019-03-27T11:46:17.122Z,2.20
2019-03-27T11:49:22.666Z,2.03
2019-03-27T11:52:29.713Z,2.20
2019-03-27T11:55:35.624Z,2.20
2019-03-27T11:58:41.081Z,2.47
2019-03-27T12:01:46.567Z,1.63
2019-03-27T12:04:52.100Z,2.07
2019-03-27T12:07:57.651Z,2.10
2019-03-27T12:11:03.104Z,2.30
2019-03-27T12:14:12.047Z,2.17
2019-03-27T12:17:15.855Z,2.10
2019-03-27T12:20:21.329Z,2.40
2019-03-27T12:23:26.875Z,2.17
2019-03-27T12:26:32.405Z,1.83
2019-03-27T12:29:37.878Z,3.50
2019-03-27T12:32:43.396Z,2.80
2019-03-27T12:35:49.608Z,2.53
2019-03-27T12:38:55.095Z,3.13
2019-03-27T12:42:00.681Z,2.40
2019-03-27T12:45:06.820Z,2.10
2019-03-27T12:48:12.434Z,2.70
2019-03-27T12:51:20.385Z,2.50
2019-03-27T12:54:25.860Z,2.90
2019-03-27T12:57:31.345Z,3.33
2019-03-27T13:00:37.339Z,3.50
2019-03-27T13:03:44.483Z,2.93
2019-03-27T13:06:50.105Z,2.27
2019-03-27T13:09:55.571Z,3.10
2019-03-27T13:13:01.690Z,2.70
2019-03-27T13:16:07.313Z,2.90
2019-03-27T13:19:12.915Z,3.03
2019-03-27T13:22:18.426Z,2.60
2019-03-27T13:25:23.946Z,2.80
2019-03-27T13:28:29.412Z,2.77
2019-03-27T13:31:34.869Z,2.63
2019-03-27T13:34:40.393Z,3.43
2019-03-27T13:37:45.942Z,3.00
2019-03-27T13:40:51.402Z,2.03
2019-03-27T13:43:56.961Z,2.90
2019-03-27T13:47:02.676Z,3.07
2019-03-27T13:50:13.035Z,3.83
2019-03-27T13:53:17.750Z,3.00
2019-03-27T13:56:23.285Z,2.50
2019-03-27T13:59:28.846Z,2.90
2019-03-27T14:02:34.487Z,2.87
2019-03-27T14:05:40.862Z,3.13
2019-03-27T14:08:49.355Z,3.07
2019-03-27T14:11:54.815Z,2.50
2019-03-27T14:15:00.447Z,2.93
2019-03-27T14:18:06.163Z,3.10
2019-03-27T14:21:11.783Z,3.03
2019-03-27T14:24:17.340Z,2.83
2019-03-27T14:27:22.877Z,2.87
2019-03-27T14:30:50.341Z,3.40
2019-03-27T14:33:55.834Z,3.20
2019-03-27T14:37:01.449Z,3.00
2019-03-27T14:40:08.934Z,2.57
2019-03-27T14:43:14.482Z,2.93
2019-03-27T14:46:19.961Z,2.70
2019-03-27T14:49:25.418Z,3.20
2019-03-27T14:52:30.949Z,3.33
2019-03-27T14:55:36.565Z,2.87
2019-03-27T14:58:42.117Z,2.67
2019-03-27T15:01:47.751Z,2.90
2019-03-27T15:04:53.284Z,2.87
2019-03-27T15:07:58.836Z,2.77
2019-03-27T15:11:04.354Z,2.20
2019-03-27T15:14:09.909Z,2.87
2019-03-27T15:17:15.387Z,2.70
2019-03-27T15:20:20.935Z,2.63
2019-03-27T15:23:26.474Z,2.70
2019-03-27T15:26:32.077Z,3.00
2019-03-27T15:29:37.621Z,2.70
2019-03-27T15:32:43.169Z,3.20
2019-03-27T15:35:48.715Z,2.87
2019-03-27T15:38:54.274Z,3.33
2019-03-27T15:41:59.816Z,3.00
2019-03-27T15:45:07.101Z,2.77
2019-03-27T15:48:12.709Z,3.13
2019-03-27T15:51:18.175Z,2.90
2019-03-27T15:54:23.709Z,2.83
2019-03-27T15:57:29.302Z,3.13
2019-03-27T16:00:34.953Z,2.93
2019-03-27T16:03:40.426Z,2.70
2019-03-27T16:06:45.894Z,2.37
2019-03-27T16:09:51.425Z,2.90
2019-03-27T16:12:56.938Z,3.70
2019-03-27T16:16:02.570Z,3.33
2019-03-27T16:19:08.439Z,2.93
2019-03-27T16:22:13.971Z,2.67
2019-03-27T16:25:19.670Z,3.10
2019-03-27T16:28:25.205Z,3.73
2019-03-27T16:31:30.676Z,3.13
2019-03-27T16:34:36.633Z,3.50
2019-03-27T16:37:42.140Z,3.20
2019-03-27T16:40:48.490Z,2.40
2019-03-27T16:43:54.113Z,3.20
2019-03-27T16:46:59.757Z,2.53
2019-03-27T16:50:07.194Z,2.90
2019-03-27T16:53:12.752Z,3.10
2019-03-27T16:56:18.298Z,3.30
2019-03-27T16:59:23.849Z,2.60
2019-03-27T17:02:29.336Z,2.67
2019-03-27T17:05:34.819Z,2.93
2019-03-27T17:08:40.376Z,2.73
2019-03-27T17:11:45.922Z,3.10
2019-03-27T17:14:51.405Z,3.73
2019-03-27T17:17:56.945Z,3.20
2019-03-27T17:21:02.415Z,3.00
2019-03-27T17:24:07.965Z,3.37
2019-03-27T17:27:13.501Z,3.00
2019-03-27T17:30:19.721Z,3.20
2019-03-27T17:33:26.470Z,3.60
2019-03-27T17:36:32.321Z,3.23
2019-03-27T17:39:38.342Z,5.03
2019-03-27T17:42:43.884Z,4.70
2019-03-27T17:45:49.422Z,4.60
2019-03-27T17:48:54.967Z,4.07
2019-03-27T17:52:00.822Z,3.30
2019-03-27T17:55:07.319Z,3.10
2019-03-27T17:58:13.005Z,3.53
2019-03-27T18:01:18.977Z,5.47
2019-03-27T18:04:24.493Z,4.80
2019-03-27T18:07:30.028Z,4.63
2019-03-27T18:10:36.714Z,4.80
2019-03-27T18:13:42.184Z,4.07
2019-03-27T18:16:47.633Z,6.57
2019-03-27T18:19:54.642Z,4.50
2019-03-27T18:23:00.190Z,5.53
2019-03-27T18:26:05.656Z,5.40
2019-03-27T18:29:11.269Z,4.10
2019-03-27T18:32:16.753Z,4.17
2019-03-27T18:35:22.223Z,3.50
2019-03-27T18:38:27.700Z,4.43
2019-03-27T18:41:33.238Z,4.33
2019-03-27T18:44:38.725Z,4.37
2019-03-27T18:47:44.349Z,3.80
2019-03-27T18:50:49.834Z,4.87
2019-03-27T18:53:59.839Z,5.63
2019-03-27T18:57:02.464Z,5.43
2019-03-27T19:00:08.543Z,5.90
2019-03-27T19:03:14.061Z,4.53
2019-03-27T19:06:19.607Z,5.47
2019-03-27T19:09:25.091Z,4.63
2019-03-27T19:12:30.617Z,5.10
2019-03-27T19:15:37.688Z,5.57
2019-03-27T19:18:43.465Z,4.80
2019-03-27T19:21:49.016Z,5.37
2019-03-27T19:24:54.564Z,5.60
2019-03-27T19:28:00.015Z,7.20
2019-03-27T19:31:05.801Z,5.60
2019-03-27T19:34:11.586Z,6.00
2019-03-27T19:37:17.121Z,5.60
2019-03-27T19:40:22.720Z,4.77
2019-03-27T19:43:28.196Z,5.50
2019-03-27T19:46:33.753Z,4.37
2019-03-27T19:49:39.206Z,7.07
2019-03-27T19:52:44.654Z,7.70
2019-03-27T19:55:50.307Z,6.63
2019-03-27T19:58:55.772Z,10.23
2019-03-27T20:02:01.301Z,8.80
2019-03-27T20:05:06.936Z,6.10
2019-03-27T20:08:12.484Z,10.50
2019-03-27T20:11:17.945Z,6.77
2019-03-27T20:14:23.408Z,6.10
2019-03-27T20:17:28.880Z,6.67
2019-03-27T20:20:34.397Z,6.93
2019-03-27T20:23:39.923Z,8.80
2019-03-27T20:26:46.609Z,11.37
2019-03-27T20:29:52.202Z,8.70
2019-03-27T20:32:57.823Z,9.27
2019-03-27T20:36:03.545Z,9.90
2019-03-27T20:39:09.622Z,9.70
2019-03-27T20:42:15.119Z,10.60
2019-03-27T20:45:20.742Z,10.50
2019-03-27T20:48:26.207Z,10.30
2019-03-27T20:51:31.702Z,9.70
2019-03-27T20:54:37.248Z,9.17
2019-03-27T20:57:42.792Z,8.57
2019-03-27T21:00:48.290Z,11.90
2019-03-27T21:03:53.745Z,10.00
2019-03-27T21:06:59.373Z,10.53
2019-03-27T21:10:06.213Z,10.47
2019-03-27T21:13:11.684Z,11.20
2019-03-27T21:16:17.225Z,9.77
2019-03-27T21:19:22.793Z,9.20
2019-03-27T21:22:28.260Z,10.37
2019-03-27T21:25:34.036Z,13.50
2019-03-27T21:28:39.691Z,14.93
2019-03-27T21:31:45.151Z,11.67
2019-03-27T21:34:50.919Z,12.70
2019-03-27T21:37:56.443Z,12.40
2019-03-27T21:41:01.934Z,11.07
2019-03-27T21:44:07.412Z,9.50
2019-03-27T21:47:13.004Z,8.60
2019-03-27T21:50:18.559Z,8.43
2019-03-27T21:53:24.026Z,8.47
2019-03-27T21:56:29.638Z,7.87
2019-03-27T21:59:35.194Z,8.70
2019-03-27T22:02:40.646Z,8.97
2019-03-27T22:05:46.278Z,8.43
2019-03-27T22:08:51.900Z,9.60
2019-03-27T22:11:57.374Z,9.97
2019-03-27T22:15:02.912Z,8.97
2019-03-27T22:18:08.862Z,9.57
2019-03-27T22:21:14.459Z,9.47
2019-03-27T22:24:19.933Z,8.80
2019-03-27T22:27:25.482Z,8.53
2019-03-27T22:30:30.952Z,7.70
2019-03-27T22:33:36.404Z,7.50
2019-03-27T22:36:41.978Z,8.13
2019-03-27T22:39:47.449Z,6.93
2019-03-27T22:42:52.893Z,8.37
2019-03-27T22:45:58.378Z,8.00
2019-03-27T22:49:03.927Z,7.47
2019-03-27T22:52:09.448Z,7.80
2019-03-27T22:55:14.909Z,8.23
2019-03-27T22:58:20.382Z,7.53
2019-03-27T23:01:27.728Z,8.90
2019-03-27T23:04:33.301Z,9.97
2019-03-27T23:07:38.925Z,9.00
2019-03-27T23:10:44.500Z,8.80
2019-03-27T23:13:49.957Z,8.67
2019-03-27T23:16:55.480Z,8.60
2019-03-27T23:20:00.956Z,8.53
2019-03-27T23:23:06.512Z,7.77
2019-03-27T23:26:11.968Z,6.80
2019-03-27T23:29:17.484Z,8.10
2019-03-27T23:32:22.942Z,7.70
2019-03-27T23:35:28.469Z,7.20
2019-03-27T23:38:33.914Z,7.30
2019-03-27T23:41:40.472Z,6.73
2019-03-27T23:44:46.015Z,7.30
2019-03-27T23:47:51.469Z,8.73
2019-03-27T23:50:58.216Z,7.63
2019-03-27T23:54:03.734Z,7.93
2019-03-27T23:57:09.186Z,8.00
